createdAt,value
2023-05-05T00:01:49.226Z,3.30
2023-05-05T00:04:17.960Z,2.90
2023-05-05T00:06:45.064Z,3.50
2023-05-05T00:09:12.734Z,3.10
2023-05-05T00:11:39.682Z,3.30
2023-05-05T00:14:06.745Z,3.10
2023-05-05T00:16:33.708Z,2.90
2023-05-05T00:19:00.584Z,3.00
2023-05-05T00:21:31.261Z,3.40
2023-05-05T00:23:58.110Z,3.20
2023-05-05T00:26:25.039Z,2.90
2023-05-05T00:28:52.439Z,4.00
2023-05-05T00:31:19.386Z,4.30
2023-05-05T00:33:46.836Z,4.70
2023-05-05T00:36:14.921Z,3.60
2023-05-05T00:38:41.871Z,3.50
2023-05-05T00:41:08.816Z,3.60
2023-05-05T00:43:36.289Z,4.30
2023-05-05T00:46:19.395Z,3.80
2023-05-05T00:48:46.657Z,3.90
2023-05-05T00:51:15.787Z,4.10
2023-05-05T00:53:45.101Z,3.70
2023-05-05T00:56:19.785Z,3.30
2023-05-05T00:58:46.885Z,3.50
2023-05-05T01:01:13.943Z,3.40
2023-05-05T01:03:43.932Z,3.20
2023-05-05T01:06:30.492Z,3.00
2023-05-05T01:09:02.111Z,3.00
2023-05-05T01:11:59.859Z,3.30
2023-05-05T01:14:40.926Z,3.30
2023-05-05T01:17:21.338Z,3.30
2023-05-05T01:20:06.482Z,3.90
2023-05-05T01:22:36.982Z,4.20
2023-05-05T01:25:12.516Z,3.80
2023-05-05T01:27:39.444Z,3.20
2023-05-05T01:30:28.399Z,3.30
2023-05-05T01:32:58.374Z,3.40
2023-05-05T01:35:36.679Z,4.20
2023-05-05T01:38:11.088Z,3.40
2023-05-05T01:40:43.730Z,3.80
2023-05-05T01:43:10.777Z,3.60
2023-05-05T01:45:38.933Z,3.90
2023-05-05T01:48:06.463Z,3.40
2023-05-05T01:50:33.677Z,4.40
2023-05-05T01:53:00.518Z,4.10
2023-05-05T01:55:28.826Z,4.50
2023-05-05T01:57:55.756Z,3.90
2023-05-05T02:00:25.205Z,3.70
2023-05-05T02:02:52.211Z,3.50
2023-05-05T02:05:21.952Z,3.90
2023-05-05T02:07:49.592Z,3.40
2023-05-05T02:10:16.746Z,3.50
2023-05-05T02:12:43.623Z,3.50
2023-05-05T02:15:11.475Z,3.80
2023-05-05T02:17:41.871Z,3.20
2023-05-05T02:20:11.477Z,4.40
2023-05-05T02:22:38.430Z,3.80
2023-05-05T02:25:06.151Z,4.20
2023-05-05T02:27:34.077Z,3.00
2023-05-05T02:30:04.670Z,3.70
2023-05-05T02:32:36.169Z,3.20
2023-05-05T02:35:12.793Z,4.10
2023-05-05T02:37:41.722Z,4.40
2023-05-05T02:40:09.589Z,4.20
2023-05-05T02:42:38.914Z,3.70
2023-05-05T02:45:15.636Z,3.80
2023-05-05T02:47:44.999Z,3.60
2023-05-05T02:50:12.375Z,3.90
2023-05-05T02:52:43.275Z,4.40
2023-05-05T02:55:10.599Z,3.80
2023-05-05T02:58:08.456Z,2.90
2023-05-05T03:00:47.840Z,3.20
2023-05-05T03:03:24.178Z,3.40
2023-05-05T03:06:04.690Z,3.50
2023-05-05T03:09:07.457Z,3.70
2023-05-05T03:12:05.568Z,4.00
2023-05-05T03:14:42.798Z,3.20
2023-05-05T03:17:12.214Z,3.30
2023-05-05T03:19:42.139Z,4.20
2023-05-05T03:22:09.173Z,3.10
2023-05-05T03:24:36.744Z,2.70
2023-05-05T03:27:06.178Z,3.10
2023-05-05T03:29:35.966Z,3.40
2023-05-05T03:32:04.883Z,3.50
2023-05-05T03:34:32.731Z,3.10
2023-05-05T03:37:00.128Z,2.90
2023-05-05T03:39:27.010Z,4.00
2023-05-05T03:41:54.605Z,3.70
2023-05-05T03:44:21.900Z,3.20
2023-05-05T03:46:48.930Z,3.50
2023-05-05T03:49:16.216Z,4.20
2023-05-05T03:51:43.542Z,4.70
2023-05-05T03:54:10.617Z,4.70
2023-05-05T03:56:37.741Z,3.80
2023-05-05T03:59:04.625Z,3.30
2023-05-05T04:01:31.668Z,3.80
2023-05-05T04:03:59.055Z,3.30
2023-05-05T04:06:26.573Z,3.70
2023-05-05T04:08:54.155Z,3.70
2023-05-05T04:11:21.521Z,3.70
2023-05-05T04:13:50.003Z,3.60
2023-05-05T04:16:17.621Z,3.30
2023-05-05T04:18:44.907Z,3.50
2023-05-05T04:21:11.891Z,4.30
2023-05-05T04:23:39.216Z,4.60
2023-05-05T04:26:06.821Z,5.00
2023-05-05T04:28:33.849Z,4.50
2023-05-05T04:31:02.762Z,4.60
2023-05-05T04:33:30.911Z,6.40
2023-05-05T04:35:58.507Z,6.30
2023-05-05T04:38:25.957Z,6.60
2023-05-05T04:40:53.352Z,6.40
2023-05-05T04:43:20.968Z,6.60
2023-05-05T04:45:55.474Z,6.10
2023-05-05T04:53:19.004Z,4.60
2023-05-05T04:55:46.035Z,4.70
2023-05-05T04:58:13.011Z,5.20
2023-05-05T05:00:39.972Z,5.50
2023-05-05T05:03:08.433Z,5.20
2023-05-05T05:05:35.396Z,5.70
2023-05-05T05:08:02.349Z,4.70
2023-05-05T05:10:29.713Z,4.50
2023-05-05T05:12:56.603Z,4.50
2023-05-05T05:15:23.632Z,5.50
2023-05-05T05:17:50.494Z,5.40
2023-05-05T05:20:17.529Z,5.10
2023-05-05T05:22:44.691Z,4.60
2023-05-05T05:25:14.328Z,3.70
2023-05-05T05:27:42.033Z,3.80
2023-05-05T05:30:11.904Z,3.70
2023-05-05T05:32:41.262Z,3.40
2023-05-05T05:35:11.562Z,2.50
2023-05-05T05:37:39.354Z,2.60
2023-05-05T05:40:08.117Z,2.90
2023-05-05T05:42:35.438Z,2.10
2023-05-05T05:45:07.474Z,3.00
2023-05-05T05:47:34.652Z,2.80
2023-05-05T05:50:01.888Z,2.40
2023-05-05T05:52:29.756Z,2.40
2023-05-05T05:54:56.643Z,2.90
2023-05-05T05:57:24.778Z,2.50
2023-05-05T05:59:52.253Z,2.70
2023-05-05T06:02:19.289Z,2.70
2023-05-05T06:04:47.292Z,2.90
2023-05-05T06:07:14.531Z,3.00
2023-05-05T06:09:41.863Z,2.30
2023-05-05T06:12:08.841Z,2.40
2023-05-05T06:14:36.300Z,2.30
2023-05-05T06:17:03.458Z,2.30
2023-05-05T06:19:30.644Z,2.40
2023-05-05T06:21:57.569Z,2.60
2023-05-05T06:24:24.858Z,2.20
2023-05-05T06:26:52.051Z,2.00
2023-05-05T06:29:18.931Z,2.10
2023-05-05T06:31:46.485Z,1.70
2023-05-05T06:34:13.584Z,2.50
2023-05-05T06:36:40.494Z,1.90
2023-05-05T06:39:07.405Z,2.40
2023-05-05T06:41:34.708Z,2.20
2023-05-05T06:44:02.683Z,2.00
2023-05-05T06:46:29.652Z,2.40
2023-05-05T06:48:56.511Z,2.20
2023-05-05T06:51:23.557Z,2.00
2023-05-05T06:53:51.264Z,1.70
2023-05-05T06:56:18.178Z,2.30
2023-05-05T06:58:45.061Z,1.70
2023-05-05T07:01:12.206Z,1.90
2023-05-05T07:03:39.152Z,2.20
2023-05-05T07:06:06.100Z,2.80
2023-05-05T07:08:33.026Z,2.30
2023-05-05T07:11:01.212Z,2.10
2023-05-05T07:13:28.139Z,2.40
2023-05-05T07:15:55.100Z,2.20
2023-05-05T07:18:22.151Z,2.20
2023-05-05T07:20:49.194Z,3.20
2023-05-05T07:23:16.236Z,3.40
2023-05-05T07:25:44.081Z,3.30
2023-05-05T07:28:11.264Z,3.70
2023-05-05T07:30:38.274Z,3.10
2023-05-05T07:33:05.353Z,2.90
2023-05-05T07:35:32.212Z,3.60
2023-05-05T07:37:59.079Z,3.50
2023-05-05T07:40:26.247Z,3.20
2023-05-05T07:42:53.248Z,3.30
2023-05-05T07:45:20.100Z,4.30
2023-05-05T07:47:47.069Z,3.80
2023-05-05T07:50:14.128Z,3.20
2023-05-05T07:52:46.880Z,3.00
2023-05-05T07:55:19.089Z,3.10
2023-05-05T07:57:46.347Z,3.50
2023-05-05T08:00:13.993Z,2.50
2023-05-05T08:02:41.688Z,2.80
2023-05-05T08:05:09.195Z,2.70
2023-05-05T08:07:41.099Z,2.80
2023-05-05T08:10:10.621Z,2.40
2023-05-05T08:12:37.775Z,2.20
2023-05-05T08:15:06.239Z,2.00
2023-05-05T08:17:50.335Z,1.90
2023-05-05T08:20:18.300Z,2.80
2023-05-05T08:22:45.366Z,2.30
2023-05-05T08:25:13.267Z,2.10
2023-05-05T08:27:41.189Z,1.90
2023-05-05T08:30:08.759Z,2.30
2023-05-05T08:32:35.728Z,2.00
2023-05-05T08:35:03.459Z,2.00
2023-05-05T08:37:50.133Z,2.30
2023-05-05T08:40:34.427Z,1.90
2023-05-05T08:43:01.517Z,1.80
2023-05-05T08:45:29.293Z,2.00
2023-05-05T08:47:57.336Z,1.80
2023-05-05T08:50:28.152Z,1.50
2023-05-05T08:53:16.646Z,1.60
2023-05-05T08:55:51.566Z,1.60
2023-05-05T08:58:19.197Z,1.90
2023-05-05T09:00:46.595Z,1.70
2023-05-05T09:03:13.656Z,1.90
2023-05-05T09:05:42.080Z,2.50
2023-05-05T09:08:10.569Z,2.20
2023-05-05T09:10:42.124Z,1.90
2023-05-05T09:13:09.288Z,2.30
2023-05-05T09:15:39.102Z,1.50
2023-05-05T09:18:09.249Z,1.90
2023-05-05T09:20:37.292Z,2.20
2023-05-05T09:23:10.960Z,2.90
2023-05-05T09:25:41.434Z,2.10
2023-05-05T09:28:16.258Z,1.70
2023-05-05T09:30:47.078Z,1.70
2023-05-05T09:33:14.377Z,1.90
2023-05-05T09:35:54.817Z,2.20
2023-05-05T09:38:24.037Z,2.20
2023-05-05T09:40:54.055Z,1.90
2023-05-05T09:43:23.043Z,1.70
2023-05-05T09:45:50.894Z,1.70
2023-05-05T09:48:28.581Z,1.60
2023-05-05T09:50:56.180Z,2.00
2023-05-05T09:53:24.182Z,2.20
2023-05-05T09:55:54.676Z,2.10
2023-05-05T09:58:26.452Z,1.50
2023-05-05T10:00:54.615Z,1.80
2023-05-05T10:03:21.874Z,1.70
2023-05-05T10:05:53.118Z,1.20
2023-05-05T10:08:21.295Z,1.30
2023-05-05T10:10:56.543Z,2.00
2023-05-05T10:13:24.371Z,1.90
2023-05-05T10:15:55.735Z,1.50
2023-05-05T10:18:30.680Z,1.80
2023-05-05T10:21:01.844Z,1.80
2023-05-05T10:23:32.501Z,2.10
2023-05-05T10:26:02.826Z,1.50
2023-05-05T10:28:46.364Z,1.50
2023-05-05T10:31:31.079Z,1.70
2023-05-05T10:34:04.186Z,1.20
2023-05-05T10:36:32.044Z,1.60
2023-05-05T10:38:59.265Z,1.70
2023-05-05T10:41:29.255Z,1.60
2023-05-05T10:43:59.571Z,1.80
2023-05-05T10:46:27.680Z,1.50
2023-05-05T10:49:00.226Z,1.60
2023-05-05T10:51:40.459Z,1.60
2023-05-05T10:54:09.032Z,1.50
2023-05-05T10:56:36.340Z,1.70
2023-05-05T10:59:03.265Z,1.20
2023-05-05T11:01:34.475Z,1.50
2023-05-05T11:04:18.225Z,1.70
2023-05-05T11:07:14.365Z,1.60
2023-05-05T11:09:58.238Z,1.50
2023-05-05T11:12:25.272Z,1.70
2023-05-05T11:15:26.736Z,1.30
2023-05-05T11:17:54.693Z,1.40
2023-05-05T11:20:37.720Z,1.40
2023-05-05T11:23:05.160Z,1.80
2023-05-05T11:25:40.928Z,1.70
2023-05-05T11:28:08.504Z,1.90
2023-05-05T11:30:36.296Z,1.30
2023-05-05T11:33:37.134Z,1.20
2023-05-05T11:36:06.829Z,2.00
2023-05-05T11:39:19.562Z,1.60
2023-05-05T11:42:10.109Z,1.20
2023-05-05T11:44:37.375Z,1.30
2023-05-05T11:47:04.413Z,1.30
2023-05-05T11:49:32.134Z,1.30
2023-05-05T11:52:08.756Z,1.30
2023-05-05T11:54:36.395Z,1.70
2023-05-05T11:57:05.579Z,1.40
2023-05-05T11:59:33.127Z,1.40
2023-05-05T12:02:00.483Z,1.80
2023-05-05T12:04:27.806Z,1.60
2023-05-05T12:06:55.565Z,1.50
2023-05-05T12:09:22.982Z,1.50
2023-05-05T12:11:50.808Z,1.70
2023-05-05T12:14:17.900Z,1.90
2023-05-05T12:16:57.696Z,1.90
2023-05-05T12:19:24.799Z,1.90
2023-05-05T12:21:54.404Z,1.90
2023-05-05T12:24:21.309Z,1.80
2023-05-05T12:26:48.314Z,1.80
2023-05-05T12:29:24.495Z,1.80
2023-05-05T12:31:51.758Z,1.90
2023-05-05T12:34:18.883Z,1.70
2023-05-05T12:36:46.087Z,2.10
2023-05-05T12:39:13.110Z,1.50
2023-05-05T12:41:40.248Z,1.50
2023-05-05T12:44:08.047Z,1.60
2023-05-05T12:46:45.535Z,1.80
2023-05-05T12:49:12.614Z,2.10
2023-05-05T12:51:39.616Z,1.80
2023-05-05T12:54:07.701Z,1.90
2023-05-05T12:56:35.474Z,1.70
2023-05-05T12:59:04.330Z,1.90
2023-05-05T13:01:31.456Z,1.90
2023-05-05T13:04:12.229Z,1.70
2023-05-05T13:06:40.662Z,2.00
2023-05-05T13:09:07.892Z,2.00
2023-05-05T13:11:39.203Z,1.80
2023-05-05T13:14:06.612Z,2.60
2023-05-05T13:16:34.048Z,2.30
2023-05-05T13:19:01.048Z,2.20
2023-05-05T13:21:28.212Z,2.10
2023-05-05T13:24:01.580Z,2.40
2023-05-05T13:26:39.360Z,2.60
2023-05-05T13:29:06.361Z,2.00
2023-05-05T13:31:33.358Z,2.20
2023-05-05T13:34:00.410Z,2.80
2023-05-05T13:36:27.815Z,2.30
2023-05-05T13:38:54.798Z,2.00
2023-05-05T13:41:21.704Z,2.40
2023-05-05T13:43:49.300Z,2.20
2023-05-05T13:46:20.053Z,2.80
2023-05-05T13:48:47.493Z,2.00
2023-05-05T13:51:15.885Z,2.30
2023-05-05T13:53:44.256Z,1.80
2023-05-05T13:56:11.360Z,2.20
2023-05-05T13:58:38.251Z,2.10
2023-05-05T14:01:23.719Z,1.80
2023-05-05T14:04:05.414Z,2.20
2023-05-05T14:06:34.093Z,2.00
2023-05-05T14:09:01.039Z,1.70
2023-05-05T14:11:28.109Z,2.10
2023-05-05T14:13:55.068Z,2.50
2023-05-05T14:16:22.050Z,2.10
2023-05-05T14:18:49.025Z,2.40
2023-05-05T14:21:16.008Z,2.20
2023-05-05T14:23:42.921Z,1.80
2023-05-05T14:26:09.781Z,1.90
2023-05-05T14:28:36.660Z,1.90
2023-05-05T14:31:03.716Z,1.80
2023-05-05T14:33:30.657Z,1.90
2023-05-05T14:35:57.535Z,1.70
2023-05-05T14:38:24.507Z,1.60
2023-05-05T14:40:51.509Z,2.10
2023-05-05T14:43:18.457Z,2.20
2023-05-05T14:45:45.530Z,2.20
2023-05-05T14:48:33.033Z,1.90
2023-05-05T14:51:17.005Z,2.20
2023-05-05T14:53:43.966Z,2.20
2023-05-05T14:56:31.041Z,1.80
2023-05-05T14:59:11.689Z,1.90
2023-05-05T15:01:38.611Z,1.60
2023-05-05T15:04:05.955Z,2.00
2023-05-05T15:06:32.948Z,2.50
2023-05-05T15:09:00.132Z,2.40
2023-05-05T15:11:27.017Z,3.00
2023-05-05T15:13:54.011Z,1.90
2023-05-05T15:16:21.328Z,2.00
2023-05-05T15:18:48.319Z,1.80
2023-05-05T15:21:15.609Z,1.90
2023-05-05T15:23:42.626Z,1.70
2023-05-05T15:26:09.514Z,2.00
2023-05-05T15:28:36.543Z,1.70
2023-05-05T15:31:03.702Z,2.10
2023-05-05T15:33:31.190Z,1.40
2023-05-05T15:35:58.109Z,2.10
2023-05-05T15:38:25.700Z,1.70
2023-05-05T15:40:52.715Z,1.80
2023-05-05T15:43:19.869Z,1.60
2023-05-05T15:45:46.830Z,1.70
2023-05-05T15:48:14.021Z,1.80
2023-05-05T15:50:41.027Z,2.10
2023-05-05T15:53:07.958Z,1.60
2023-05-05T15:55:35.951Z,1.60
2023-05-05T15:58:02.854Z,1.30
2023-05-05T16:00:31.597Z,1.50
2023-05-05T16:02:58.597Z,1.60
2023-05-05T16:05:25.899Z,1.40
2023-05-05T16:07:53.837Z,1.50
2023-05-05T16:10:20.969Z,1.80
2023-05-05T16:12:47.899Z,1.80
2023-05-05T16:15:14.838Z,1.80
2023-05-05T16:17:41.776Z,1.30
2023-05-05T16:20:09.406Z,1.60
2023-05-05T16:22:37.061Z,1.60
2023-05-05T16:25:04.385Z,1.30
2023-05-05T16:27:31.423Z,1.40
2023-05-05T16:29:59.805Z,1.60
2023-05-05T16:32:27.029Z,1.90
2023-05-05T16:34:54.017Z,1.80
2023-05-05T16:37:20.968Z,1.10
2023-05-05T16:39:48.024Z,1.50
2023-05-05T16:42:14.901Z,1.40
2023-05-05T16:44:41.916Z,1.90
2023-05-05T16:47:09.506Z,1.70
2023-05-05T16:49:36.550Z,2.30
2023-05-05T16:52:03.694Z,1.70
2023-05-05T16:54:30.897Z,2.00
2023-05-05T16:56:58.420Z,1.50
2023-05-05T16:59:25.285Z,1.40
2023-05-05T17:01:52.265Z,1.80
2023-05-05T17:04:19.571Z,1.60
2023-05-05T17:06:46.438Z,2.00
2023-05-05T17:09:13.330Z,1.30
2023-05-05T17:11:40.335Z,2.00
2023-05-05T17:14:07.285Z,1.50
2023-05-05T17:16:34.593Z,1.70
2023-05-05T17:19:02.000Z,2.40
2023-05-05T17:21:29.467Z,2.30
2023-05-05T17:23:57.018Z,2.00
2023-05-05T17:26:24.703Z,2.30
2023-05-05T17:28:52.004Z,1.60
2023-05-05T17:31:19.121Z,2.10
2023-05-05T17:33:46.151Z,2.00
2023-05-05T17:36:13.208Z,1.80
2023-05-05T17:38:40.138Z,2.00
2023-05-05T17:41:07.600Z,2.50
2023-05-05T17:43:34.665Z,2.70
2023-05-05T17:46:01.965Z,2.70
2023-05-05T17:48:29.018Z,2.70
2023-05-05T17:50:56.244Z,2.50
2023-05-05T17:53:23.395Z,2.60
2023-05-05T17:55:50.452Z,3.40
2023-05-05T17:58:17.398Z,3.90
2023-05-05T18:00:44.371Z,3.40
2023-05-05T18:03:11.497Z,4.90
2023-05-05T18:05:39.596Z,5.20
2023-05-05T18:08:07.045Z,6.00
2023-05-05T18:10:33.894Z,6.00
2023-05-05T18:13:00.827Z,7.40
2023-05-05T18:15:29.901Z,6.90
2023-05-05T18:17:56.893Z,6.70
2023-05-05T18:20:23.725Z,6.90
2023-05-05T18:22:50.600Z,6.70
2023-05-05T18:25:17.542Z,6.90
2023-05-05T18:27:44.606Z,7.40
2023-05-05T18:30:12.111Z,7.70
2023-05-05T18:32:39.144Z,7.10
2023-05-05T18:35:07.217Z,6.70
2023-05-05T18:37:34.550Z,6.50
2023-05-05T18:40:01.376Z,5.40
2023-05-05T18:42:28.229Z,4.70
2023-05-05T18:44:55.130Z,4.10
2023-05-05T18:47:22.359Z,4.20
2023-05-05T18:49:49.840Z,8.20
2023-05-05T18:52:17.175Z,28.00
2023-05-05T18:54:44.023Z,29.30
2023-05-05T18:57:11.086Z,42.70
2023-05-05T18:59:37.918Z,32.60
2023-05-05T19:02:04.811Z,21.20
2023-05-05T19:04:32.817Z,11.00
2023-05-05T19:07:00.331Z,7.20
2023-05-05T19:09:27.775Z,8.60
2023-05-05T19:11:54.634Z,7.30
2023-05-05T19:14:22.391Z,4.30
2023-05-05T19:16:49.413Z,4.10
2023-05-05T19:19:16.696Z,3.40
2023-05-05T19:21:43.556Z,3.30
2023-05-05T19:24:10.599Z,3.80
2023-05-05T19:26:37.573Z,4.00
2023-05-05T19:29:04.632Z,3.10
2023-05-05T19:31:31.911Z,4.30
2023-05-05T19:34:03.237Z,6.90
2023-05-05T19:36:33.802Z,11.90
2023-05-05T19:39:02.035Z,8.70
2023-05-05T19:41:30.718Z,11.50
2023-05-05T19:43:57.708Z,8.40
2023-05-05T19:46:27.552Z,7.80
2023-05-05T19:48:54.557Z,12.20
2023-05-05T19:51:21.593Z,9.40
2023-05-05T19:53:48.528Z,4.80
2023-05-05T19:56:15.483Z,3.40
2023-05-05T19:59:01.778Z,3.30
2023-05-05T20:01:29.145Z,2.90
2023-05-05T20:03:56.667Z,2.60
2023-05-05T20:06:23.859Z,2.30
2023-05-05T20:08:51.010Z,3.10
2023-05-05T20:11:18.382Z,2.70
2023-05-05T20:13:45.349Z,2.80
2023-05-05T20:16:12.580Z,2.90
2023-05-05T20:18:40.464Z,2.70
2023-05-05T20:21:07.352Z,3.10
2023-05-05T20:23:34.453Z,2.80
2023-05-05T20:26:01.812Z,2.60
2023-05-05T20:28:31.699Z,3.10
2023-05-05T20:30:58.728Z,3.00
2023-05-05T20:33:25.965Z,2.60
2023-05-05T20:35:52.805Z,2.90
2023-05-05T20:38:19.746Z,3.00
2023-05-05T20:40:46.723Z,2.60
2023-05-05T20:43:13.599Z,3.40
2023-05-05T20:45:40.489Z,3.20
2023-05-05T20:48:09.860Z,3.20
2023-05-05T20:50:40.755Z,3.10
2023-05-05T20:53:07.892Z,3.30
2023-05-05T20:55:34.915Z,3.10
2023-05-05T20:58:01.833Z,3.20
2023-05-05T21:00:28.855Z,3.00
2023-05-05T21:02:57.175Z,3.20
2023-05-05T21:05:24.485Z,3.00
2023-05-05T21:07:53.343Z,3.40
2023-05-05T21:10:20.683Z,2.90
2023-05-05T21:12:47.566Z,2.90
2023-05-05T21:15:16.696Z,2.60
2023-05-05T21:17:43.868Z,2.70
2023-05-05T21:20:11.674Z,3.10
2023-05-05T21:22:38.969Z,2.90
2023-05-05T21:25:13.806Z,2.70
2023-05-05T21:27:40.736Z,2.50
2023-05-05T21:30:10.664Z,3.10
2023-05-05T21:32:38.911Z,2.80
2023-05-05T21:35:06.926Z,3.00
2023-05-05T21:37:33.816Z,2.70
2023-05-05T21:40:01.007Z,1.90
2023-05-05T21:42:29.664Z,2.70
2023-05-05T21:44:56.787Z,2.30
2023-05-05T21:47:23.699Z,2.70
2023-05-05T21:49:50.680Z,2.70
2023-05-05T21:52:17.530Z,2.80
2023-05-05T21:54:44.581Z,2.40
2023-05-05T21:57:11.427Z,2.40
2023-05-05T21:59:38.416Z,2.20
2023-05-05T22:02:05.403Z,2.20
2023-05-05T22:04:32.227Z,2.30
2023-05-05T22:06:59.233Z,2.30
2023-05-05T22:09:26.079Z,2.30
2023-05-05T22:11:53.032Z,2.90
2023-05-05T22:14:19.981Z,2.50
2023-05-05T22:16:46.843Z,2.40
2023-05-05T22:19:13.777Z,2.20
2023-05-05T22:21:40.622Z,2.90
2023-05-05T22:24:07.660Z,2.50
2023-05-05T22:26:34.630Z,2.60
2023-05-05T22:29:01.682Z,2.30
2023-05-05T22:31:29.585Z,2.30
2023-05-05T22:33:56.512Z,2.70
2023-05-05T22:36:23.568Z,2.30
2023-05-05T22:38:50.502Z,2.30
2023-05-05T22:41:17.333Z,1.90
2023-05-05T22:43:44.352Z,2.80
2023-05-05T22:46:11.260Z,2.70
2023-05-05T22:48:38.086Z,2.80
2023-05-05T22:51:05.569Z,2.40
2023-05-05T22:53:32.401Z,2.90
2023-05-05T22:55:59.227Z,2.00
2023-05-05T22:58:26.847Z,2.30
2023-05-05T23:00:53.753Z,2.00
2023-05-05T23:03:20.633Z,2.10
2023-05-05T23:05:47.445Z,2.30
2023-05-05T23:08:14.334Z,2.60
2023-05-05T23:10:41.278Z,2.70
2023-05-05T23:13:08.214Z,2.30
2023-05-05T23:15:35.320Z,2.60
2023-05-05T23:18:02.359Z,2.40
2023-05-05T23:20:29.792Z,2.40
2023-05-05T23:22:56.706Z,2.40
2023-05-05T23:25:23.551Z,2.30
2023-05-05T23:27:50.786Z,2.70
2023-05-05T23:30:18.449Z,3.20
2023-05-05T23:32:46.023Z,2.60
2023-05-05T23:35:12.935Z,2.80
2023-05-05T23:37:39.890Z,2.70
2023-05-05T23:40:07.446Z,2.70
2023-05-05T23:42:34.405Z,2.30
2023-05-05T23:45:01.381Z,2.60
2023-05-05T23:47:28.267Z,2.20
2023-05-05T23:49:55.214Z,1.90
2023-05-05T23:52:22.605Z,2.20
2023-05-05T23:54:49.458Z,3.50
2023-05-05T23:57:16.506Z,2.40
2023-05-05T23:59:43.355Z,2.60
